createdAt,value
2023-05-14T00:02:03.659Z,1012.5
2023-05-14T00:05:03.650Z,1012.5
2023-05-14T00:08:03.641Z,1012.5
2023-05-14T00:11:03.651Z,1012.4
2023-05-14T00:14:03.663Z,1012.5
2023-05-14T00:17:03.737Z,1012.4
2023-05-14T00:20:03.669Z,1012.4
2023-05-14T00:23:03.673Z,1012.4
2023-05-14T00:26:03.696Z,1012.4
2023-05-14T00:29:03.684Z,1012.4
2023-05-14T00:32:03.705Z,1012.3
2023-05-14T00:35:03.706Z,1012.4
2023-05-14T00:38:03.714Z,1012.4
2023-05-14T00:41:03.720Z,1012.3
2023-05-14T00:44:03.722Z,1012.3
2023-05-14T00:47:03.787Z,1012.3
2023-05-14T00:50:03.745Z,1012.4
2023-05-14T00:53:03.717Z,1012.3
2023-05-14T00:56:03.737Z,1012.4
2023-05-14T00:59:03.735Z,1012.3
2023-05-14T01:02:03.739Z,1012.3
2023-05-14T01:05:03.732Z,1012.4
2023-05-14T01:08:03.738Z,1012.2
2023-05-14T01:11:03.755Z,1012.3
2023-05-14T01:14:03.742Z,1012.3
2023-05-14T01:17:03.757Z,1012.3
2023-05-14T01:20:03.755Z,1012.3
2023-05-14T01:23:03.759Z,1012.3
2023-05-14T01:26:03.770Z,1012.3
2023-05-14T01:29:03.777Z,1012.3
2023-05-14T01:32:03.862Z,1012.3
2023-05-14T01:35:03.773Z,1012.2
2023-05-14T01:38:03.777Z,1012.3
2023-05-14T01:41:03.796Z,1012.4
2023-05-14T01:44:03.783Z,1012.3
2023-05-14T01:47:03.804Z,1012.3
2023-05-14T01:50:03.796Z,1012.4
2023-05-14T01:53:03.794Z,1012.3
2023-05-14T01:56:03.809Z,1012.3
2023-05-14T01:59:03.807Z,1012.4
2023-05-14T02:02:03.809Z,1012.4
2023-05-14T02:05:04.893Z,1012.3
2023-05-14T02:08:03.798Z,1012.3
2023-05-14T02:11:03.828Z,1012.2
2023-05-14T02:14:03.841Z,1012.2
2023-05-14T02:17:03.819Z,1012.2
2023-05-14T02:20:03.828Z,1012.2
2023-05-14T02:23:03.840Z,1012.2
2023-05-14T02:26:03.853Z,1012.2
2023-05-14T02:29:03.859Z,1012.2
2023-05-14T02:32:03.899Z,1012.2
2023-05-14T02:35:03.865Z,1012.1
2023-05-14T02:38:03.851Z,1012.2
2023-05-14T02:41:03.856Z,1012
2023-05-14T02:44:03.852Z,1012.2
2023-05-14T02:47:03.874Z,1012.2
2023-05-14T02:50:03.880Z,1012.1
2023-05-14T02:53:03.877Z,1012.1
2023-05-14T02:56:03.883Z,1012.1
2023-05-14T02:59:03.879Z,1012.1
2023-05-14T03:02:03.887Z,1012.1
2023-05-14T03:05:03.897Z,1012.2
2023-05-14T03:08:03.882Z,1012.1
2023-05-14T03:11:03.888Z,1012.1
2023-05-14T03:14:03.883Z,1012.1
2023-05-14T03:17:03.961Z,1012.1
2023-05-14T03:20:03.895Z,1012.1
2023-05-14T03:23:03.885Z,1012.1
2023-05-14T03:26:03.904Z,1012.1
2023-05-14T03:29:03.924Z,1012
2023-05-14T03:32:03.907Z,1012
2023-05-14T03:35:03.923Z,1012
2023-05-14T03:38:03.935Z,1012
2023-05-14T03:41:03.965Z,1012
2023-05-14T03:44:03.957Z,1012
2023-05-14T03:47:03.975Z,1012
2023-05-14T03:50:03.979Z,1011.9
2023-05-14T03:53:03.979Z,1011.8
2023-05-14T03:56:03.998Z,1011.8
2023-05-14T03:59:04.000Z,1011.8
2023-05-14T04:02:03.999Z,1011.9
2023-05-14T04:05:04.014Z,1011.9
2023-05-14T04:08:04.013Z,1011.9
2023-05-14T04:11:04.094Z,1011.9
2023-05-14T04:14:04.011Z,1011.9
2023-05-14T04:17:04.032Z,1011.9
2023-05-14T04:20:04.018Z,1011.9
2023-05-14T04:23:04.037Z,1011.8
2023-05-14T04:26:04.155Z,1011.7
2023-05-14T04:29:04.028Z,1011.8
2023-05-14T04:32:04.069Z,1011.8
2023-05-14T04:35:04.041Z,1011.9
2023-05-14T04:38:04.055Z,1011.7
2023-05-14T04:41:04.370Z,1011.6
2023-05-14T04:44:04.057Z,1011.8
2023-05-14T04:47:04.063Z,1011.8
2023-05-14T04:50:04.074Z,1011.8
2023-05-14T04:53:04.082Z,1011.8
2023-05-14T04:56:04.297Z,1011.6
2023-05-14T04:59:04.095Z,1011.7
2023-05-14T05:02:04.098Z,1011.7
2023-05-14T05:05:04.168Z,1011.8
2023-05-14T05:08:04.135Z,1011.8
2023-05-14T05:11:04.116Z,1011.8
2023-05-14T05:14:04.120Z,1011.7
2023-05-14T05:17:04.133Z,1011.8
2023-05-14T05:20:04.132Z,1011.8
2023-05-14T05:23:04.184Z,1011.8
2023-05-14T05:26:04.136Z,1011.7
2023-05-14T05:29:04.135Z,1011.7
2023-05-14T05:32:04.136Z,1011.7
2023-05-14T05:35:04.138Z,1011.7
2023-05-14T05:38:04.155Z,1011.7
2023-05-14T05:41:04.169Z,1011.7
2023-05-14T05:44:04.151Z,1011.7
2023-05-14T05:47:04.298Z,1011.7
2023-05-14T05:50:04.162Z,1011.7
2023-05-14T05:53:04.214Z,1011.7
2023-05-14T05:56:04.181Z,1011.7
2023-05-14T05:59:04.160Z,1011.7
2023-05-14T06:02:04.204Z,1011.7
2023-05-14T06:05:04.222Z,1011.6
2023-05-14T06:08:04.180Z,1011.6
2023-05-14T06:11:04.209Z,1011.7
2023-05-14T06:14:04.187Z,1011.7
2023-05-14T06:17:04.208Z,1011.7
2023-05-14T06:20:04.225Z,1011.6
2023-05-14T06:23:04.198Z,1011.7
2023-05-14T06:26:04.217Z,1011.5
2023-05-14T06:32:04.274Z,1011.5
2023-05-14T06:35:04.236Z,1011.6
2023-05-14T06:38:04.229Z,1011.6
2023-05-14T06:41:04.264Z,1011.6
2023-05-14T06:44:04.228Z,1011.5
2023-05-14T06:47:04.253Z,1011.6
2023-05-14T06:50:04.262Z,1011.4
2023-05-14T06:53:04.252Z,1011.5
2023-05-14T06:56:04.313Z,1011.5
2023-05-14T06:59:04.260Z,1011.6
2023-05-14T07:02:04.261Z,1011.5
2023-05-14T07:05:04.280Z,1011.3
2023-05-14T07:08:04.281Z,1011.3
2023-05-14T07:11:04.279Z,1011.3
2023-05-14T07:14:04.297Z,1011.3
2023-05-14T07:17:04.341Z,1011.3
2023-05-14T07:20:04.304Z,1011.2
2023-05-14T07:23:04.298Z,1011.2
2023-05-14T07:26:04.307Z,1011.1
2023-05-14T07:29:04.324Z,1011.2
2023-05-14T07:32:04.304Z,1011.2
2023-05-14T07:35:04.317Z,1011.2
2023-05-14T07:38:04.343Z,1011.2
2023-05-14T07:41:04.333Z,1011.1
2023-05-14T07:44:04.324Z,1011.1
2023-05-14T07:47:04.448Z,1011.1
2023-05-14T07:50:04.351Z,1011.1
2023-05-14T07:53:04.347Z,1011
2023-05-14T07:56:04.353Z,1011
2023-05-14T07:59:04.353Z,1010.9
2023-05-14T08:02:04.362Z,1010.9
2023-05-14T08:05:04.365Z,1011
2023-05-14T08:08:04.358Z,1011
2023-05-14T08:11:04.407Z,1010.9
2023-05-14T08:14:04.385Z,1010.9
2023-05-14T08:17:04.506Z,1010.9
2023-05-14T08:20:04.391Z,1010.9
2023-05-14T08:23:04.393Z,1011
2023-05-14T08:26:04.410Z,1010.9
2023-05-14T08:29:04.396Z,1010.8
2023-05-14T08:32:12.072Z,1010.7
2023-05-14T08:35:04.394Z,1010.8
2023-05-14T08:38:04.399Z,1010.7
2023-05-14T08:41:04.411Z,1010.7
2023-05-14T08:44:04.424Z,1010.6
2023-05-14T08:47:04.431Z,1010.6
2023-05-14T08:50:04.566Z,1010.6
2023-05-14T08:53:04.422Z,1010.6
2023-05-14T08:56:04.427Z,1010.6
2023-05-14T08:59:04.419Z,1010.6
2023-05-14T09:02:04.501Z,1010.5
2023-05-14T09:05:04.452Z,1010.4
2023-05-14T09:08:04.433Z,1010.5
2023-05-14T09:11:04.450Z,1010.4
2023-05-14T09:14:04.460Z,1010.4
2023-05-14T09:17:04.455Z,1010.3
2023-05-14T09:20:04.479Z,1010.3
2023-05-14T09:23:04.473Z,1010.4
2023-05-14T09:26:04.462Z,1010.3
2023-05-14T09:29:04.460Z,1010.4
2023-05-14T09:32:04.482Z,1010.3
2023-05-14T09:35:04.461Z,1010.2
2023-05-14T09:38:04.474Z,1010.3
2023-05-14T09:41:04.500Z,1010.2
2023-05-14T09:44:06.084Z,1010.2
2023-05-14T09:47:04.512Z,1010.2
2023-05-14T09:50:04.500Z,1010.1
2023-05-14T09:53:04.499Z,1010.1
2023-05-14T09:56:04.526Z,1009.9
2023-05-14T09:59:04.553Z,1009.9
2023-05-14T10:02:04.529Z,1010
2023-05-14T10:05:04.522Z,1009.9
2023-05-14T10:08:04.523Z,1009.9
2023-05-14T10:11:04.547Z,1009.8
2023-05-14T10:14:04.537Z,1009.7
2023-05-14T10:17:04.577Z,1009.8
2023-05-14T10:20:04.542Z,1009.7
2023-05-14T10:23:04.547Z,1009.6
2023-05-14T10:26:04.554Z,1009.6
2023-05-14T10:29:04.554Z,1009.6
2023-05-14T10:32:04.548Z,1009.5
2023-05-14T10:35:04.563Z,1009.4
2023-05-14T10:38:04.560Z,1009.4
2023-05-14T10:41:04.582Z,1009.3
2023-05-14T10:44:04.570Z,1009.4
2023-05-14T10:47:04.609Z,1009.3
2023-05-14T10:50:04.581Z,1009.3
2023-05-14T10:53:04.593Z,1009.2
2023-05-14T10:56:04.601Z,1009.1
2023-05-14T10:59:04.604Z,1009.2
2023-05-14T11:02:04.633Z,1009.2
2023-05-14T11:05:04.621Z,1009.1
2023-05-14T11:08:04.618Z,1009.1
2023-05-14T11:11:04.636Z,1009
2023-05-14T11:14:04.634Z,1009
2023-05-14T11:17:04.698Z,1009
2023-05-14T11:20:04.635Z,1008.9
2023-05-14T11:23:04.650Z,1009
2023-05-14T11:26:04.679Z,1008.9
2023-05-14T11:29:04.645Z,1008.9
2023-05-14T11:32:04.670Z,1008.8
2023-05-14T11:35:04.654Z,1008.8
2023-05-14T11:38:04.694Z,1008.8
2023-05-14T11:41:04.673Z,1008.9
2023-05-14T11:44:04.676Z,1008.8
2023-05-14T11:47:04.674Z,1008.8
2023-05-14T11:50:04.687Z,1008.8
2023-05-14T11:53:04.692Z,1008.7
2023-05-14T11:56:04.696Z,1008.7
2023-05-14T11:59:04.703Z,1008.7
2023-05-14T12:02:04.754Z,1008.7
2023-05-14T12:05:04.697Z,1008.7
2023-05-14T12:08:04.689Z,1008.6
2023-05-14T12:11:04.712Z,1008.7
2023-05-14T12:14:04.740Z,1008.6
2023-05-14T12:17:04.724Z,1008.6
2023-05-14T12:20:04.726Z,1008.6
2023-05-14T12:23:04.722Z,1008.6
2023-05-14T12:26:04.790Z,1008.5
2023-05-14T12:29:04.734Z,1008.6
2023-05-14T12:32:04.736Z,1008.6
2023-05-14T12:35:04.733Z,1008.5
2023-05-14T12:38:04.759Z,1008.5
2023-05-14T12:41:04.765Z,1008.5
2023-05-14T12:44:04.797Z,1008.5
2023-05-14T12:47:04.812Z,1008.5
2023-05-14T12:50:04.769Z,1008.4
2023-05-14T12:53:04.779Z,1008.5
2023-05-14T12:56:04.838Z,1008.4
2023-05-14T12:59:04.780Z,1008.4
2023-05-14T13:02:04.793Z,1008.3
2023-05-14T13:05:04.792Z,1008.3
2023-05-14T13:08:04.794Z,1008.3
2023-05-14T13:11:04.812Z,1008.2
2023-05-14T13:14:04.799Z,1008.2
2023-05-14T13:17:04.917Z,1008.2
2023-05-14T13:20:04.827Z,1008.2
2023-05-14T13:23:04.801Z,1008
2023-05-14T13:26:04.835Z,1008.1
2023-05-14T13:29:04.811Z,1008
2023-05-14T13:32:04.829Z,1008
2023-05-14T13:35:04.818Z,1008
2023-05-14T13:38:04.836Z,1008
2023-05-14T13:41:04.849Z,1007.9
2023-05-14T13:44:04.855Z,1007.9
2023-05-14T13:47:04.869Z,1007.9
2023-05-14T13:50:04.842Z,1007.9
2023-05-14T13:53:04.849Z,1007.9
2023-05-14T13:56:04.894Z,1007.9
2023-05-14T13:59:04.880Z,1007.8
2023-05-14T14:02:04.960Z,1007.7
2023-05-14T14:05:04.916Z,1007.7
2023-05-14T14:08:21.823Z,1007.6
2023-05-14T14:11:04.904Z,1007.6
2023-05-14T14:14:04.912Z,1007.6
2023-05-14T14:17:04.908Z,1007.5
2023-05-14T14:20:04.899Z,1007.5
2023-05-14T14:23:04.918Z,1007.4
2023-05-14T14:26:04.919Z,1007.3
2023-05-14T14:29:04.924Z,1007.4
2023-05-14T14:32:04.921Z,1007.4
2023-05-14T14:35:04.935Z,1007.4
2023-05-14T14:38:04.915Z,1007.3
2023-05-14T14:41:04.946Z,1007.4
2023-05-14T14:44:04.932Z,1007.3
2023-05-14T14:47:04.944Z,1007.3
2023-05-14T14:50:04.949Z,1007.3
2023-05-14T14:53:04.953Z,1007.2
2023-05-14T14:56:04.974Z,1007.2
2023-05-14T14:59:04.971Z,1007.2
2023-05-14T15:02:04.952Z,1007.2
2023-05-14T15:05:04.988Z,1007.1
2023-05-14T15:08:04.985Z,1007.1
2023-05-14T15:11:04.987Z,1007.1
2023-05-14T15:14:04.985Z,1007.1
2023-05-14T15:17:05.046Z,1007
2023-05-14T15:20:05.078Z,1007
2023-05-14T15:23:05.090Z,1007
2023-05-14T15:26:05.043Z,1006.9
2023-05-14T15:29:05.040Z,1006.9
2023-05-14T15:32:05.060Z,1006.9
2023-05-14T15:35:05.112Z,1006.9
2023-05-14T15:38:05.031Z,1006.9
2023-05-14T15:41:05.016Z,1006.8
2023-05-14T15:44:05.021Z,1006.8
2023-05-14T15:47:05.013Z,1006.7
2023-05-14T15:50:05.101Z,1006.6
2023-05-14T15:53:05.018Z,1006.7
2023-05-14T15:56:05.050Z,1006.7
2023-05-14T15:59:05.045Z,1006.7
2023-05-14T16:02:05.144Z,1006.7
2023-05-14T16:05:05.036Z,1006.7
2023-05-14T16:08:05.081Z,1006.7
2023-05-14T16:11:05.071Z,1006.7
2023-05-14T16:14:05.055Z,1006.6
2023-05-14T16:17:05.055Z,1006.6
2023-05-14T16:20:05.068Z,1006.6
2023-05-14T16:23:05.072Z,1006.6
2023-05-14T16:26:05.079Z,1006.6
2023-05-14T16:29:05.085Z,1006.6
2023-05-14T16:32:05.095Z,1006.6
2023-05-14T16:35:05.080Z,1006.7
2023-05-14T16:38:05.077Z,1006.7
2023-05-14T16:41:05.091Z,1006.6
2023-05-14T16:44:05.097Z,1006.6
2023-05-14T16:47:05.078Z,1006.6
2023-05-14T16:50:05.088Z,1006.6
2023-05-14T16:53:05.086Z,1006.5
2023-05-14T16:56:05.100Z,1006.5
2023-05-14T16:59:05.090Z,1006.4
2023-05-14T17:02:05.091Z,1006.5
2023-05-14T17:05:05.102Z,1006.5
2023-05-14T17:08:05.096Z,1006.5
2023-05-14T17:11:05.117Z,1006.4
2023-05-14T17:14:05.113Z,1006.5
2023-05-14T17:17:05.129Z,1006.5
2023-05-14T17:20:05.131Z,1006.5
2023-05-14T17:23:05.118Z,1006.4
2023-05-14T17:26:05.138Z,1006.4
2023-05-14T17:29:05.146Z,1006.4
2023-05-14T17:32:05.204Z,1006.4
2023-05-14T17:35:05.136Z,1006.4
2023-05-14T17:38:05.166Z,1006.4
2023-05-14T17:41:05.147Z,1006.4
2023-05-14T17:44:05.141Z,1006.4
2023-05-14T17:47:05.181Z,1006.4
2023-05-14T17:50:05.154Z,1006.4
2023-05-14T17:53:05.162Z,1006.4
2023-05-14T17:56:05.180Z,1006.4
2023-05-14T17:59:05.171Z,1006.5
2023-05-14T18:02:05.169Z,1006.5
2023-05-14T18:05:05.215Z,1006.4
2023-05-14T18:08:05.212Z,1006.5
2023-05-14T18:11:05.215Z,1006.5
2023-05-14T18:14:05.196Z,1006.5
2023-05-14T18:17:05.239Z,1006.5
2023-05-14T18:20:05.231Z,1006.6
2023-05-14T18:23:05.253Z,1006.5
2023-05-14T18:26:05.269Z,1006.6
2023-05-14T18:29:05.271Z,1006.5
2023-05-14T18:32:05.310Z,1006.6
2023-05-14T18:35:07.827Z,1006.6
2023-05-14T18:38:05.296Z,1006.6
2023-05-14T18:41:05.319Z,1006.6
2023-05-14T18:44:05.318Z,1006.6
2023-05-14T18:47:05.314Z,1006.5
2023-05-14T18:50:05.329Z,1006.5
2023-05-14T18:53:05.335Z,1006.5
2023-05-14T18:56:05.347Z,1006.5
2023-05-14T18:59:05.334Z,1006.6
2023-05-14T19:02:05.353Z,1006.6
2023-05-14T19:05:05.366Z,1006.5
2023-05-14T19:08:05.346Z,1006.6
2023-05-14T19:11:05.384Z,1006.6
2023-05-14T19:14:05.371Z,1006.7
2023-05-14T19:17:05.362Z,1006.7
2023-05-14T19:20:05.359Z,1006.7
2023-05-14T19:23:05.363Z,1006.7
2023-05-14T19:26:05.375Z,1006.7
2023-05-14T19:29:05.386Z,1006.7
2023-05-14T19:32:05.467Z,1006.6
2023-05-14T19:35:05.372Z,1006.6
2023-05-14T19:38:05.375Z,1006.7
2023-05-14T19:41:05.400Z,1006.7
2023-05-14T19:44:05.391Z,1006.6
2023-05-14T19:47:05.432Z,1006.6
2023-05-14T19:50:05.408Z,1006.6
2023-05-14T19:53:05.404Z,1006.5
2023-05-14T19:56:05.420Z,1006.5
2023-05-14T19:59:05.403Z,1006.3
2023-05-14T20:02:05.435Z,1006.4
2023-05-14T20:05:05.410Z,1006.4
2023-05-14T20:08:05.427Z,1006.4
2023-05-14T20:11:05.421Z,1006.4
2023-05-14T20:14:05.422Z,1006.4
2023-05-14T20:17:05.496Z,1006.4
2023-05-14T20:20:05.427Z,1006.3
2023-05-14T20:23:05.422Z,1006.3
2023-05-14T20:26:05.439Z,1006.3
2023-05-14T20:29:05.435Z,1006.2
2023-05-14T20:32:05.444Z,1006.2
2023-05-14T20:35:05.440Z,1006.2
2023-05-14T20:38:05.437Z,1006.3
2023-05-14T20:41:05.466Z,1006.2
2023-05-14T20:44:05.453Z,1006.1
2023-05-14T20:47:05.454Z,1006.1
2023-05-14T20:50:05.446Z,1006.1
2023-05-14T20:53:05.446Z,1006.1
2023-05-14T20:56:05.462Z,1006.2
2023-05-14T20:59:05.453Z,1006.2
2023-05-14T21:02:05.556Z,1006.2
2023-05-14T21:05:05.456Z,1006.2
2023-05-14T21:08:05.463Z,1006.2
2023-05-14T21:11:05.470Z,1006.1
2023-05-14T21:14:05.459Z,1006.1
2023-05-14T21:17:05.465Z,1006
2023-05-14T21:20:05.471Z,1006
2023-05-14T21:23:05.463Z,1006
2023-05-14T21:26:05.474Z,1005.9
2023-05-14T21:29:05.473Z,1005.9
2023-05-14T21:32:05.499Z,1005.9
2023-05-14T21:35:05.486Z,1005.9
2023-05-14T21:38:05.464Z,1005.8
2023-05-14T21:41:05.479Z,1005.8
2023-05-14T21:44:05.466Z,1005.7
2023-05-14T21:47:05.477Z,1005.7
2023-05-14T21:50:05.474Z,1005.7
2023-05-14T21:53:05.470Z,1005.7
2023-05-14T21:56:05.482Z,1005.8
2023-05-14T21:59:05.481Z,1005.7
2023-05-14T22:02:07.182Z,1005.7
2023-05-14T22:05:05.472Z,1005.6
2023-05-14T22:08:05.489Z,1005.6
2023-05-14T22:11:05.501Z,1005.6
2023-05-14T22:14:05.482Z,1005.6
2023-05-14T22:17:05.478Z,1005.6
2023-05-14T22:20:05.498Z,1005.6
2023-05-14T22:23:05.479Z,1005.6
2023-05-14T22:26:05.494Z,1005.6
2023-05-14T22:29:05.493Z,1005.6
2023-05-14T22:32:05.486Z,1005.6
2023-05-14T22:35:05.484Z,1005.6
2023-05-14T22:38:05.486Z,1005.6
2023-05-14T22:41:05.500Z,1005.6
2023-05-14T22:44:05.488Z,1005.6
2023-05-14T22:47:05.495Z,1005.5
2023-05-14T22:50:05.504Z,1005.5
2023-05-14T22:53:05.492Z,1005.5
2023-05-14T22:56:05.511Z,1005.5
2023-05-14T22:59:05.503Z,1005.4
2023-05-14T23:02:05.526Z,1005.4
2023-05-14T23:05:05.497Z,1005.4
2023-05-14T23:08:05.509Z,1005.4
2023-05-14T23:11:05.520Z,1005.4
2023-05-14T23:14:05.518Z,1005.4
2023-05-14T23:17:05.502Z,1005.3
2023-05-14T23:20:05.502Z,1005.3
2023-05-14T23:23:05.509Z,1005.3
2023-05-14T23:26:05.518Z,1005.2
2023-05-14T23:29:05.513Z,1005.2
2023-05-14T23:32:05.571Z,1005.2
2023-05-14T23:35:05.523Z,1005.1
2023-05-14T23:38:05.517Z,1005.1
2023-05-14T23:41:05.535Z,1005
2023-05-14T23:44:05.519Z,1005
2023-05-14T23:47:05.517Z,1004.8
2023-05-14T23:50:05.592Z,1004.9
2023-05-14T23:53:05.516Z,1004.9
2023-05-14T23:56:05.523Z,1004.9
2023-05-14T23:59:05.513Z,1005
